This is the latest recevied weather packets stored in our database for station/object Kozakov. If no packets are shown the sender has not sent any weather packets the latest 1 day(s).
| Time | Temp. | Humidity | Pressure | Rain* | Wind** | Luminosity | Snow |
|---|---|---|---|---|---|---|---|
| 1836274691 | 16.11° C | 100% | - | - | 7.15 m/s, 104° | - | - |
| 1836274534 | 17.22° C | 93% | - | - | 7.15 m/s, 113° | - | - |
| 1836274390 | 16.11° C | 100% | - | - | 5.81 m/s, 103° | - | - |
| 1836274241 | 16.11° C | 98% | - | - | 5.81 m/s, 111° | - | - |
| 1836274091 | 16.11° C | 100% | - | - | 5.81 m/s, 108° | - | - |
| 1778023509 | 8.89° C | 100% | - | - | 4.92 m/s, 308° | - | - |
| 1778023212 | 8.89° C | 100% | - | - | 5.81 m/s, 312° | - | - |
| 1778022910 | 8.89° C | 100% | - | - | 5.81 m/s, 297° | - | - |
| 1778022618 | 8.89° C | 100% | - | - | 5.81 m/s, 305° | - | - |
| 1778022318 | 8.89° C | 100% | - | - | 5.81 m/s, 297° | - | - |
| 1778022018 | 8.89° C | 100% | - | - | 5.81 m/s, 278° | - | - |
| 1778021716 | 10° C | 100% | - | - | 4.92 m/s, 270° | - | - |
| 1778021417 | 10° C | 100% | - | - | 5.81 m/s, 295° | - | - |
| 1778021117 | 10° C | 100% | - | - | 3.13 m/s, 262° | - | - |
| 1778020825 | 10° C | 100% | - | - | 5.81 m/s, 283° | - | - |
| 1778020517 | 11.11° C | 100% | - | - | 4.92 m/s, 271° | - | - |
| 1778020218 | 11.11° C | 100% | - | - | 1.79 m/s, 263° | - | - |
| 1778019917 | 11.11° C | 100% | - | - | 4.02 m/s, 266° | - | - |
| 1778019620 | 11.11° C | 100% | - | - | 4.02 m/s, 248° | - | - |
| 1778019318 | 11.11° C | 100% | - | - | 3.13 m/s, 264° | - | - |
| 1778019017 | 11.11° C | 100% | - | - | 5.81 m/s, 266° | - | - |
| 1778018717 | 12.22° C | 100% | - | - | 4.02 m/s, 234° | - | - |
| 1778018417 | 12.22° C | 100% | - | - | 4.92 m/s, 252° | - | - |
| 1778018126 | 12.78° C | 100% | - | - | 3.13 m/s, 129° | - | - |
| 1778017822 | 12.78° C | 100% | - | - | 8.05 m/s, 94° | - | - |
* Rain since midnight (hover to see other rain measurements)
** Current wind speed in m/s (hover to see current wind gust speed)